sensor_id;sensor_type;location;lat;lon;timestamp;temperature;humidity
33717;DHT22;20046;50.746;7.072;2023-02-15T00:01:45;3.20;99.90
33717;DHT22;20046;50.746;7.072;2023-02-15T00:04:16;3.20;99.90
33717;DHT22;20046;50.746;7.072;2023-02-15T00:06:42;3.20;99.90
33717;DHT22;20046;50.746;7.072;2023-02-15T00:09:09;3.20;99.90
33717;DHT22;20046;50.746;7.072;2023-02-15T00:11:35;3.20;99.90
33717;DHT22;20046;50.746;7.072;2023-02-15T00:14:23;3.10;99.90
33717;DHT22;20046;50.746;7.072;2023-02-15T00:16:50;3.10;99.90
33717;DHT22;20046;50.746;7.072;2023-02-15T00:19:19;3.10;99.90
33717;DHT22;20046;50.746;7.072;2023-02-15T00:21:45;3.10;99.90
33717;DHT22;20046;50.746;7.072;2023-02-15T00:24:12;3.10;99.90
33717;DHT22;20046;50.746;7.072;2023-02-15T00:26:40;3.10;99.90
33717;DHT22;20046;50.746;7.072;2023-02-15T00:29:06;3.10;99.90
33717;DHT22;20046;50.746;7.072;2023-02-15T00:31:33;3.00;99.90
33717;DHT22;20046;50.746;7.072;2023-02-15T00:34:06;3.00;99.90
33717;DHT22;20046;50.746;7.072;2023-02-15T00:36:32;2.90;99.90
33717;DHT22;20046;50.746;7.072;2023-02-15T00:38:58;2.90;99.90
33717;DHT22;20046;50.746;7.072;2023-02-15T00:41:24;2.90;99.90
33717;DHT22;20046;50.746;7.072;2023-02-15T00:43:49;2.80;99.90
33717;DHT22;20046;50.746;7.072;2023-02-15T00:46:15;2.80;99.90
33717;DHT22;20046;50.746;7.072;2023-02-15T00:48:41;2.70;99.90
33717;DHT22;20046;50.746;7.072;2023-02-15T00:51:06;2.70;99.90
33717;DHT22;20046;50.746;7.072;2023-02-15T00:53:32;2.70;99.90
33717;DHT22;20046;50.746;7.072;2023-02-15T00:55:58;2.70;99.90
33717;DHT22;20046;50.746;7.072;2023-02-15T00:58:24;2.70;99.90
33717;DHT22;20046;50.746;7.072;2023-02-15T01:00:50;2.70;99.90
33717;DHT22;20046;50.746;7.072;2023-02-15T01:03:18;2.70;99.90
33717;DHT22;20046;50.746;7.072;2023-02-15T01:05:45;2.70;99.90
33717;DHT22;20046;50.746;7.072;2023-02-15T01:08:11;2.70;99.90
33717;DHT22;20046;50.746;7.072;2023-02-15T01:10:37;2.70;99.90
33717;DHT22;20046;50.746;7.072;2023-02-15T01:13:03;2.60;99.90
33717;DHT22;20046;50.746;7.072;2023-02-15T01:15:34;2.60;99.90
33717;DHT22;20046;50.746;7.072;2023-02-15T01:18:00;2.60;99.90
33717;DHT22;20046;50.746;7.072;2023-02-15T01:20:28;2.60;99.90
33717;DHT22;20046;50.746;7.072;2023-02-15T01:22:54;2.60;99.90
33717;DHT22;20046;50.746;7.072;2023-02-15T01:25:21;2.60;99.90
33717;DHT22;20046;50.746;7.072;2023-02-15T01:27:48;2.60;99.90
33717;DHT22;20046;50.746;7.072;2023-02-15T01:30:14;2.60;99.90
33717;DHT22;20046;50.746;7.072;2023-02-15T01:32:41;2.60;99.90
33717;DHT22;20046;50.746;7.072;2023-02-15T01:35:08;2.50;99.90
33717;DHT22;20046;50.746;7.072;2023-02-15T01:37:34;2.50;99.90
33717;DHT22;20046;50.746;7.072;2023-02-15T01:40:04;2.50;99.90
33717;DHT22;20046;50.746;7.072;2023-02-15T01:42:30;2.50;99.90
33717;DHT22;20046;50.746;7.072;2023-02-15T01:44:58;2.40;99.90
33717;DHT22;20046;50.746;7.072;2023-02-15T01:47:45;2.40;99.90
33717;DHT22;20046;50.746;7.072;2023-02-15T01:50:34;2.40;99.90
33717;DHT22;20046;50.746;7.072;2023-02-15T01:53:27;2.30;99.90
33717;DHT22;20046;50.746;7.072;2023-02-15T01:55:57;2.30;99.90
33717;DHT22;20046;50.746;7.072;2023-02-15T01:58:25;2.30;99.90
33717;DHT22;20046;50.746;7.072;2023-02-15T02:00:52;2.30;99.90
33717;DHT22;20046;50.746;7.072;2023-02-15T02:03:28;2.30;99.90
33717;DHT22;20046;50.746;7.072;2023-02-15T02:05:56;2.30;99.90
33717;DHT22;20046;50.746;7.072;2023-02-15T02:08:21;2.30;99.90
33717;DHT22;20046;50.746;7.072;2023-02-15T02:10:47;2.30;99.90
33717;DHT22;20046;50.746;7.072;2023-02-15T02:13:12;2.30;99.90
33717;DHT22;20046;50.746;7.072;2023-02-15T02:15:55;2.20;99.90
33717;DHT22;20046;50.746;7.072;2023-02-15T02:35:05;1.90;99.90
33717;DHT22;20046;50.746;7.072;2023-02-15T02:37:50;1.90;99.90
33717;DHT22;20046;50.746;7.072;2023-02-15T02:46:26;1.90;99.90
33717;DHT22;20046;50.746;7.072;2023-02-15T02:48:53;1.90;99.90
33717;DHT22;20046;50.746;7.072;2023-02-15T02:51:20;1.80;99.90
33717;DHT22;20046;50.746;7.072;2023-02-15T02:53:50;1.80;99.90
33717;DHT22;20046;50.746;7.072;2023-02-15T02:56:37;1.80;99.90
33717;DHT22;20046;50.746;7.072;2023-02-15T02:59:24;1.70;99.90
33717;DHT22;20046;50.746;7.072;2023-02-15T03:02:24;1.80;99.90
33717;DHT22;20046;50.746;7.072;2023-02-15T03:04:56;1.70;99.90
33717;DHT22;20046;50.746;7.072;2023-02-15T03:07:25;1.70;99.90
33717;DHT22;20046;50.746;7.072;2023-02-15T03:09:54;1.70;99.90
33717;DHT22;20046;50.746;7.072;2023-02-15T03:12:32;1.70;99.90
33717;DHT22;20046;50.746;7.072;2023-02-15T03:17:40;1.70;99.90
33717;DHT22;20046;50.746;7.072;2023-02-15T03:20:33;1.60;99.90
33717;DHT22;20046;50.746;7.072;2023-02-15T03:23:06;1.60;99.90
33717;DHT22;20046;50.746;7.072;2023-02-15T03:25:33;1.60;99.90
33717;DHT22;20046;50.746;7.072;2023-02-15T03:28:03;1.60;99.90
33717;DHT22;20046;50.746;7.072;2023-02-15T03:30:31;1.50;99.90
33717;DHT22;20046;50.746;7.072;2023-02-15T03:32:58;1.50;99.90
33717;DHT22;20046;50.746;7.072;2023-02-15T03:35:26;1.50;99.90
33717;DHT22;20046;50.746;7.072;2023-02-15T03:38:00;1.50;99.90
33717;DHT22;20046;50.746;7.072;2023-02-15T03:40:34;1.50;99.90
33717;DHT22;20046;50.746;7.072;2023-02-15T03:43:44;1.50;99.90
33717;DHT22;20046;50.746;7.072;2023-02-15T03:46:15;1.50;99.90
33717;DHT22;20046;50.746;7.072;2023-02-15T03:48:47;1.40;99.90
33717;DHT22;20046;50.746;7.072;2023-02-15T03:51:19;1.40;99.90
33717;DHT22;20046;50.746;7.072;2023-02-15T03:54:18;1.40;99.90
33717;DHT22;20046;50.746;7.072;2023-02-15T03:57:06;1.40;99.90
33717;DHT22;20046;50.746;7.072;2023-02-15T03:59:50;1.50;99.90
33717;DHT22;20046;50.746;7.072;2023-02-15T04:02:40;1.50;99.90
33717;DHT22;20046;50.746;7.072;2023-02-15T04:05:07;1.50;99.90
33717;DHT22;20046;50.746;7.072;2023-02-15T04:07:33;1.40;99.90
33717;DHT22;20046;50.746;7.072;2023-02-15T04:09:58;1.40;99.90
33717;DHT22;20046;50.746;7.072;2023-02-15T04:12:43;1.40;99.90
33717;DHT22;20046;50.746;7.072;2023-02-15T04:15:12;1.50;99.90
33717;DHT22;20046;50.746;7.072;2023-02-15T04:17:56;1.50;99.90
33717;DHT22;20046;50.746;7.072;2023-02-15T04:20:21;1.50;99.90
33717;DHT22;20046;50.746;7.072;2023-02-15T04:23:06;1.40;99.90
33717;DHT22;20046;50.746;7.072;2023-02-15T04:25:50;1.40;99.90
33717;DHT22;20046;50.746;7.072;2023-02-15T04:28:15;1.40;99.90
33717;DHT22;20046;50.746;7.072;2023-02-15T04:30:41;1.40;99.90
33717;DHT22;20046;50.746;7.072;2023-02-15T04:33:06;1.40;99.90
33717;DHT22;20046;50.746;7.072;2023-02-15T04:35:32;1.30;99.90
33717;DHT22;20046;50.746;7.072;2023-02-15T04:37:59;1.30;99.90
33717;DHT22;20046;50.746;7.072;2023-02-15T04:40:25;1.30;99.90
33717;DHT22;20046;50.746;7.072;2023-02-15T04:42:50;1.30;99.90
33717;DHT22;20046;50.746;7.072;2023-02-15T04:45:17;1.30;99.90
33717;DHT22;20046;50.746;7.072;2023-02-15T04:47:43;1.30;99.90
33717;DHT22;20046;50.746;7.072;2023-02-15T04:50:09;1.30;99.90
33717;DHT22;20046;50.746;7.072;2023-02-15T04:52:35;1.30;99.90
33717;DHT22;20046;50.746;7.072;2023-02-15T04:55:01;1.30;99.90
33717;DHT22;20046;50.746;7.072;2023-02-15T04:57:27;1.30;99.90
33717;DHT22;20046;50.746;7.072;2023-02-15T04:59:52;1.30;99.90
33717;DHT22;20046;50.746;7.072;2023-02-15T05:02:18;1.30;99.90
33717;DHT22;20046;50.746;7.072;2023-02-15T05:04:43;1.30;99.90
33717;DHT22;20046;50.746;7.072;2023-02-15T05:07:09;1.30;99.90
33717;DHT22;20046;50.746;7.072;2023-02-15T05:09:35;1.30;99.90
33717;DHT22;20046;50.746;7.072;2023-02-15T05:12:00;1.30;99.90
33717;DHT22;20046;50.746;7.072;2023-02-15T05:14:26;1.30;99.90
33717;DHT22;20046;50.746;7.072;2023-02-15T05:16:51;1.30;99.90
33717;DHT22;20046;50.746;7.072;2023-02-15T05:19:19;1.30;99.90
33717;DHT22;20046;50.746;7.072;2023-02-15T05:21:44;1.30;99.90
33717;DHT22;20046;50.746;7.072;2023-02-15T05:24:10;1.30;99.90
33717;DHT22;20046;50.746;7.072;2023-02-15T05:26:54;1.30;99.90
33717;DHT22;20046;50.746;7.072;2023-02-15T05:29:38;1.30;99.90
33717;DHT22;20046;50.746;7.072;2023-02-15T05:32:04;1.30;99.90
33717;DHT22;20046;50.746;7.072;2023-02-15T05:34:30;1.30;99.90
33717;DHT22;20046;50.746;7.072;2023-02-15T05:36:55;1.30;99.90
33717;DHT22;20046;50.746;7.072;2023-02-15T05:39:21;1.30;99.90
33717;DHT22;20046;50.746;7.072;2023-02-15T05:41:46;1.30;99.90
33717;DHT22;20046;50.746;7.072;2023-02-15T05:44:12;1.30;99.90
33717;DHT22;20046;50.746;7.072;2023-02-15T05:46:37;1.30;99.90
33717;DHT22;20046;50.746;7.072;2023-02-15T05:49:03;1.30;99.90
33717;DHT22;20046;50.746;7.072;2023-02-15T05:51:28;1.20;99.90
33717;DHT22;20046;50.746;7.072;2023-02-15T05:53:54;1.20;99.90
33717;DHT22;20046;50.746;7.072;2023-02-15T05:56:20;1.10;99.90
33717;DHT22;20046;50.746;7.072;2023-02-15T05:58:45;1.20;99.90
33717;DHT22;20046;50.746;7.072;2023-02-15T06:01:15;1.20;99.90
33717;DHT22;20046;50.746;7.072;2023-02-15T06:03:42;1.20;99.90
33717;DHT22;20046;50.746;7.072;2023-02-15T06:06:08;1.20;99.90
33717;DHT22;20046;50.746;7.072;2023-02-15T06:08:35;1.10;99.90
33717;DHT22;20046;50.746;7.072;2023-02-15T06:11:01;1.10;99.90
33717;DHT22;20046;50.746;7.072;2023-02-15T06:13:27;1.10;99.90
33717;DHT22;20046;50.746;7.072;2023-02-15T06:15:53;1.10;99.90
33717;DHT22;20046;50.746;7.072;2023-02-15T06:18:18;1.20;99.90
33717;DHT22;20046;50.746;7.072;2023-02-15T06:20:47;1.20;99.90
33717;DHT22;20046;50.746;7.072;2023-02-15T06:23:13;1.20;99.90
33717;DHT22;20046;50.746;7.072;2023-02-15T06:25:39;1.20;99.90
33717;DHT22;20046;50.746;7.072;2023-02-15T06:28:04;1.20;99.90
33717;DHT22;20046;50.746;7.072;2023-02-15T06:30:30;1.20;99.90
33717;DHT22;20046;50.746;7.072;2023-02-15T06:32:56;1.20;99.90
33717;DHT22;20046;50.746;7.072;2023-02-15T06:35:22;1.20;99.90
33717;DHT22;20046;50.746;7.072;2023-02-15T06:37:48;1.20;99.90
33717;DHT22;20046;50.746;7.072;2023-02-15T06:40:14;1.20;99.90
33717;DHT22;20046;50.746;7.072;2023-02-15T06:42:41;1.20;99.90
33717;DHT22;20046;50.746;7.072;2023-02-15T06:45:07;1.20;99.90
33717;DHT22;20046;50.746;7.072;2023-02-15T06:47:33;1.20;99.90
33717;DHT22;20046;50.746;7.072;2023-02-15T06:49:58;1.20;99.90
33717;DHT22;20046;50.746;7.072;2023-02-15T06:52:24;1.20;99.90
33717;DHT22;20046;50.746;7.072;2023-02-15T06:54:49;1.20;99.90
33717;DHT22;20046;50.746;7.072;2023-02-15T06:57:15;1.30;99.90
33717;DHT22;20046;50.746;7.072;2023-02-15T06:59:41;1.30;99.90
33717;DHT22;20046;50.746;7.072;2023-02-15T07:02:07;1.40;99.90
33717;DHT22;20046;50.746;7.072;2023-02-15T07:04:33;1.50;99.90
33717;DHT22;20046;50.746;7.072;2023-02-15T07:06:59;1.70;99.90
33717;DHT22;20046;50.746;7.072;2023-02-15T07:09:24;1.80;99.90
33717;DHT22;20046;50.746;7.072;2023-02-15T07:11:50;2.00;99.90
33717;DHT22;20046;50.746;7.072;2023-02-15T07:14:34;2.10;99.90
33717;DHT22;20046;50.746;7.072;2023-02-15T07:17:00;2.20;99.90
33717;DHT22;20046;50.746;7.072;2023-02-15T07:19:26;2.20;99.90
33717;DHT22;20046;50.746;7.072;2023-02-15T07:21:51;2.40;99.90
33717;DHT22;20046;50.746;7.072;2023-02-15T07:24:17;2.50;99.90
33717;DHT22;20046;50.746;7.072;2023-02-15T07:26:42;2.60;99.90
33717;DHT22;20046;50.746;7.072;2023-02-15T07:29:08;2.70;99.90
33717;DHT22;20046;50.746;7.072;2023-02-15T07:31:34;2.70;99.90
33717;DHT22;20046;50.746;7.072;2023-02-15T07:34:00;2.60;99.90
33717;DHT22;20046;50.746;7.072;2023-02-15T07:36:25;2.60;99.90
33717;DHT22;20046;50.746;7.072;2023-02-15T07:38:51;3.00;99.90
33717;DHT22;20046;50.746;7.072;2023-02-15T07:41:17;3.30;99.90
33717;DHT22;20046;50.746;7.072;2023-02-15T07:43:44;3.50;99.90
33717;DHT22;20046;50.746;7.072;2023-02-15T07:46:12;3.50;99.90
33717;DHT22;20046;50.746;7.072;2023-02-15T07:48:39;3.80;99.90
33717;DHT22;20046;50.746;7.072;2023-02-15T07:51:06;3.90;99.90
33717;DHT22;20046;50.746;7.072;2023-02-15T07:53:33;4.40;99.90
33717;DHT22;20046;50.746;7.072;2023-02-15T07:56:03;4.60;99.90
33717;DHT22;20046;50.746;7.072;2023-02-15T07:58:29;4.50;99.90
33717;DHT22;20046;50.746;7.072;2023-02-15T08:01:14;4.70;99.90
33717;DHT22;20046;50.746;7.072;2023-02-15T08:03:39;4.70;99.90
33717;DHT22;20046;50.746;7.072;2023-02-15T08:06:05;4.90;99.90
33717;DHT22;20046;50.746;7.072;2023-02-15T08:08:33;4.80;99.90
33717;DHT22;20046;50.746;7.072;2023-02-15T08:11:00;4.80;99.90
33717;DHT22;20046;50.746;7.072;2023-02-15T08:13:47;5.00;99.90
33717;DHT22;20046;50.746;7.072;2023-02-15T08:19:18;5.20;99.90
33717;DHT22;20046;50.746;7.072;2023-02-15T08:21:55;5.00;99.90
33717;DHT22;20046;50.746;7.072;2023-02-15T08:24:23;4.90;99.90
33717;DHT22;20046;50.746;7.072;2023-02-15T08:26:50;4.70;99.90
33717;DHT22;20046;50.746;7.072;2023-02-15T08:29:17;4.80;99.90
33717;DHT22;20046;50.746;7.072;2023-02-15T08:31:44;5.00;99.90
33717;DHT22;20046;50.746;7.072;2023-02-15T08:34:13;5.40;99.90
33717;DHT22;20046;50.746;7.072;2023-02-15T08:36:39;5.70;99.90
33717;DHT22;20046;50.746;7.072;2023-02-15T08:39:06;5.70;99.90
33717;DHT22;20046;50.746;7.072;2023-02-15T08:41:34;5.60;99.90
33717;DHT22;20046;50.746;7.072;2023-02-15T08:44:01;5.50;99.90
33717;DHT22;20046;50.746;7.072;2023-02-15T08:46:30;5.40;99.90
33717;DHT22;20046;50.746;7.072;2023-02-15T08:48:56;5.40;99.90
33717;DHT22;20046;50.746;7.072;2023-02-15T08:51:24;5.40;99.90
33717;DHT22;20046;50.746;7.072;2023-02-15T08:53:52;5.80;99.90
33717;DHT22;20046;50.746;7.072;2023-02-15T08:56:22;6.10;99.90
33717;DHT22;20046;50.746;7.072;2023-02-15T08:58:48;5.90;99.90
33717;DHT22;20046;50.746;7.072;2023-02-15T09:01:20;6.00;99.90
33717;DHT22;20046;50.746;7.072;2023-02-15T09:03:48;6.10;99.90
33717;DHT22;20046;50.746;7.072;2023-02-15T09:06:16;6.00;99.90
33717;DHT22;20046;50.746;7.072;2023-02-15T09:08:42;6.00;99.90
33717;DHT22;20046;50.746;7.072;2023-02-15T09:11:14;6.30;99.90
33717;DHT22;20046;50.746;7.072;2023-02-15T09:13:48;5.90;99.90
33717;DHT22;20046;50.746;7.072;2023-02-15T09:16:14;6.20;99.90
33717;DHT22;20046;50.746;7.072;2023-02-15T09:18:42;6.80;99.90
33717;DHT22;20046;50.746;7.072;2023-02-15T09:21:13;7.10;99.90
33717;DHT22;20046;50.746;7.072;2023-02-15T09:23:40;6.80;99.90
33717;DHT22;20046;50.746;7.072;2023-02-15T09:26:11;6.50;99.90
33717;DHT22;20046;50.746;7.072;2023-02-15T09:28:37;6.30;99.90
33717;DHT22;20046;50.746;7.072;2023-02-15T09:31:15;6.50;99.90
33717;DHT22;20046;50.746;7.072;2023-02-15T09:33:42;6.30;99.90
33717;DHT22;20046;50.746;7.072;2023-02-15T09:36:22;6.50;99.90
33717;DHT22;20046;50.746;7.072;2023-02-15T09:39:04;7.30;99.90
33717;DHT22;20046;50.746;7.072;2023-02-15T10:01:10;8.80;99.90
33717;DHT22;20046;50.746;7.072;2023-02-15T10:09:27;9.40;99.90
33717;DHT22;20046;50.746;7.072;2023-02-15T10:14:50;10.30;99.90
33717;DHT22;20046;50.746;7.072;2023-02-15T10:25:55;10.40;99.90
33717;DHT22;20046;50.746;7.072;2023-02-15T10:28:28;10.30;99.90
33717;DHT22;20046;50.746;7.072;2023-02-15T10:31:17;10.50;99.90
33717;DHT22;20046;50.746;7.072;2023-02-15T10:33:50;10.90;99.90
33717;DHT22;20046;50.746;7.072;2023-02-15T10:47:22;10.70;99.90
33717;DHT22;20046;50.746;7.072;2023-02-15T10:55:08;10.50;99.90
33717;DHT22;20046;50.746;7.072;2023-02-15T10:58:08;11.30;99.90
33717;DHT22;20046;50.746;7.072;2023-02-15T11:00:56;11.40;99.90
33717;DHT22;20046;50.746;7.072;2023-02-15T11:03:39;11.10;99.90
33717;DHT22;20046;50.746;7.072;2023-02-15T11:06:11;10.90;99.90
33717;DHT22;20046;50.746;7.072;2023-02-15T11:09:02;11.00;99.90
33717;DHT22;20046;50.746;7.072;2023-02-15T11:11:35;11.00;99.90
33717;DHT22;20046;50.746;7.072;2023-02-15T11:14:09;11.00;99.90
33717;DHT22;20046;50.746;7.072;2023-02-15T11:16:42;11.40;99.90
33717;DHT22;20046;50.746;7.072;2023-02-15T11:19:22;12.30;99.90
33717;DHT22;20046;50.746;7.072;2023-02-15T11:21:50;12.60;99.90
33717;DHT22;20046;50.746;7.072;2023-02-15T11:24:19;13.00;99.90
33717;DHT22;20046;50.746;7.072;2023-02-15T11:26:54;12.50;99.90
33717;DHT22;20046;50.746;7.072;2023-02-15T11:29:41;13.00;99.90
33717;DHT22;20046;50.746;7.072;2023-02-15T11:32:23;12.70;99.90
33717;DHT22;20046;50.746;7.072;2023-02-15T11:34:51;12.30;99.90
33717;DHT22;20046;50.746;7.072;2023-02-15T11:37:20;12.00;99.90
33717;DHT22;20046;50.746;7.072;2023-02-15T11:39:51;12.20;99.90
33717;DHT22;20046;50.746;7.072;2023-02-15T11:42:21;12.10;99.90
33717;DHT22;20046;50.746;7.072;2023-02-15T11:45:27;12.80;99.90
33717;DHT22;20046;50.746;7.072;2023-02-15T11:47:54;12.70;99.40
33717;DHT22;20046;50.746;7.072;2023-02-15T11:50:23;13.50;98.40
33717;DHT22;20046;50.746;7.072;2023-02-15T11:52:58;14.20;98.00
33717;DHT22;20046;50.746;7.072;2023-02-15T11:55:27;15.40;96.00
33717;DHT22;20046;50.746;7.072;2023-02-15T11:58:00;15.60;94.70
33717;DHT22;20046;50.746;7.072;2023-02-15T12:00:33;15.30;94.60
33717;DHT22;20046;50.746;7.072;2023-02-15T12:03:07;16.30;93.20
33717;DHT22;20046;50.746;7.072;2023-02-15T12:05:36;16.10;92.50
33717;DHT22;20046;50.746;7.072;2023-02-15T12:08:19;16.00;92.10
33717;DHT22;20046;50.746;7.072;2023-02-15T12:11:00;15.80;92.10
33717;DHT22;20046;50.746;7.072;2023-02-15T12:13:28;15.80;91.50
33717;DHT22;20046;50.746;7.072;2023-02-15T12:15:57;16.00;91.10
33717;DHT22;20046;50.746;7.072;2023-02-15T12:18:42;16.00;91.10
33717;DHT22;20046;50.746;7.072;2023-02-15T12:21:14;15.80;90.50
33717;DHT22;20046;50.746;7.072;2023-02-15T12:23:55;16.50;90.40
33717;DHT22;20046;50.746;7.072;2023-02-15T12:26:30;17.80;87.90
33717;DHT22;20046;50.746;7.072;2023-02-15T12:29:07;16.90;86.10
33717;DHT22;20046;50.746;7.072;2023-02-15T12:31:40;17.20;85.60
33717;DHT22;20046;50.746;7.072;2023-02-15T12:34:23;17.30;84.90
33717;DHT22;20046;50.746;7.072;2023-02-15T12:36:53;17.30;84.40
33717;DHT22;20046;50.746;7.072;2023-02-15T12:39:29;16.60;85.50
33717;DHT22;20046;50.746;7.072;2023-02-15T12:44:23;17.80;83.90
33717;DHT22;20046;50.746;7.072;2023-02-15T12:49:25;17.20;82.90
33717;DHT22;20046;50.746;7.072;2023-02-15T12:51:56;16.80;83.20
33717;DHT22;20046;50.746;7.072;2023-02-15T12:56:48;16.20;84.00
33717;DHT22;20046;50.746;7.072;2023-02-15T12:59:14;17.00;84.80
33717;DHT22;20046;50.746;7.072;2023-02-15T13:01:46;17.00;83.60
33717;DHT22;20046;50.746;7.072;2023-02-15T13:04:29;18.30;81.30
33717;DHT22;20046;50.746;7.072;2023-02-15T13:06:58;18.00;80.30
33717;DHT22;20046;50.746;7.072;2023-02-15T13:11:57;17.60;81.50
33717;DHT22;20046;50.746;7.072;2023-02-15T13:14:34;17.10;81.50
33717;DHT22;20046;50.746;7.072;2023-02-15T13:17:02;17.90;81.00
33717;DHT22;20046;50.746;7.072;2023-02-15T13:19:48;18.40;79.30
33717;DHT22;20046;50.746;7.072;2023-02-15T13:22:27;19.30;78.10
33717;DHT22;20046;50.746;7.072;2023-02-15T13:24:56;19.60;74.80
33717;DHT22;20046;50.746;7.072;2023-02-15T13:27:28;19.40;75.00
33717;DHT22;20046;50.746;7.072;2023-02-15T13:29:59;19.90;74.60
33717;DHT22;20046;50.746;7.072;2023-02-15T13:32:32;19.90;74.40
33717;DHT22;20046;50.746;7.072;2023-02-15T13:35:00;20.20;73.10
33717;DHT22;20046;50.746;7.072;2023-02-15T13:40:58;20.60;72.30
33717;DHT22;20046;50.746;7.072;2023-02-15T13:52:21;21.00;69.90
33717;DHT22;20046;50.746;7.072;2023-02-15T14:05:33;16.40;79.90
33717;DHT22;20046;50.746;7.072;2023-02-15T14:10:55;16.50;80.50
33717;DHT22;20046;50.746;7.072;2023-02-15T14:19:13;16.70;79.90
33717;DHT22;20046;50.746;7.072;2023-02-15T14:22:09;16.60;80.30
33717;DHT22;20046;50.746;7.072;2023-02-15T14:27:18;15.90;82.00
33717;DHT22;20046;50.746;7.072;2023-02-15T14:30:02;15.50;82.70
33717;DHT22;20046;50.746;7.072;2023-02-15T14:32:41;15.50;83.10
33717;DHT22;20046;50.746;7.072;2023-02-15T14:35:16;15.60;83.40
33717;DHT22;20046;50.746;7.072;2023-02-15T14:43:33;15.40;84.10
33717;DHT22;20046;50.746;7.072;2023-02-15T14:46:31;14.60;85.70
33717;DHT22;20046;50.746;7.072;2023-02-15T14:49:15;14.30;87.00
33717;DHT22;20046;50.746;7.072;2023-02-15T14:56:47;13.70;89.70
33717;DHT22;20046;50.746;7.072;2023-02-15T14:59:36;13.80;89.70
33717;DHT22;20046;50.746;7.072;2023-02-15T15:07:43;13.20;90.90
33717;DHT22;20046;50.746;7.072;2023-02-15T15:18:03;12.30;92.90
33717;DHT22;20046;50.746;7.072;2023-02-15T15:20:47;12.10;93.40
33717;DHT22;20046;50.746;7.072;2023-02-15T15:25:46;11.90;94.20
33717;DHT22;20046;50.746;7.072;2023-02-15T15:31:04;11.70;94.90
33717;DHT22;20046;50.746;7.072;2023-02-15T15:39:38;11.50;96.10
33717;DHT22;20046;50.746;7.072;2023-02-15T15:42:40;11.30;96.50
33717;DHT22;20046;50.746;7.072;2023-02-15T15:45:34;11.30;96.80
33717;DHT22;20046;50.746;7.072;2023-02-15T15:48:31;11.20;97.20
33717;DHT22;20046;50.746;7.072;2023-02-15T15:51:25;11.20;97.60
33717;DHT22;20046;50.746;7.072;2023-02-15T15:53:53;11.20;97.90
33717;DHT22;20046;50.746;7.072;2023-02-15T15:56:23;11.10;98.10
33717;DHT22;20046;50.746;7.072;2023-02-15T15:58:56;11.00;98.40
33717;DHT22;20046;50.746;7.072;2023-02-15T16:01:28;11.00;98.60
33717;DHT22;20046;50.746;7.072;2023-02-15T16:03:56;10.90;98.90
33717;DHT22;20046;50.746;7.072;2023-02-15T16:06:34;10.90;99.30
33717;DHT22;20046;50.746;7.072;2023-02-15T16:09:18;10.80;99.50
33717;DHT22;20046;50.746;7.072;2023-02-15T16:11:47;10.80;99.80
33717;DHT22;20046;50.746;7.072;2023-02-15T16:14:37;10.80;99.90
33717;DHT22;20046;50.746;7.072;2023-02-15T16:17:19;10.70;99.90
33717;DHT22;20046;50.746;7.072;2023-02-15T16:19:45;10.60;99.90
33717;DHT22;20046;50.746;7.072;2023-02-15T16:22:18;10.60;99.90
33717;DHT22;20046;50.746;7.072;2023-02-15T16:25:25;10.50;99.90
33717;DHT22;20046;50.746;7.072;2023-02-15T16:27:53;10.50;99.90
33717;DHT22;20046;50.746;7.072;2023-02-15T16:30:28;10.40;99.90
33717;DHT22;20046;50.746;7.072;2023-02-15T16:33:04;10.30;99.90
33717;DHT22;20046;50.746;7.072;2023-02-15T16:35:30;10.30;99.90
33717;DHT22;20046;50.746;7.072;2023-02-15T16:37:55;10.20;99.90
33717;DHT22;20046;50.746;7.072;2023-02-15T16:43:05;10.20;99.90
33717;DHT22;20046;50.746;7.072;2023-02-15T16:45:34;10.10;99.90
33717;DHT22;20046;50.746;7.072;2023-02-15T16:48:07;10.00;99.90
33717;DHT22;20046;50.746;7.072;2023-02-15T16:50:37;9.90;99.90
33717;DHT22;20046;50.746;7.072;2023-02-15T16:53:05;9.90;99.90
33717;DHT22;20046;50.746;7.072;2023-02-15T16:55:37;9.80;99.90
33717;DHT22;20046;50.746;7.072;2023-02-15T16:58:05;9.80;99.90
33717;DHT22;20046;50.746;7.072;2023-02-15T17:00:35;9.70;99.90
33717;DHT22;20046;50.746;7.072;2023-02-15T17:05:50;9.70;99.90
33717;DHT22;20046;50.746;7.072;2023-02-15T17:08:17;9.70;99.90
33717;DHT22;20046;50.746;7.072;2023-02-15T17:13:26;9.60;99.90
33717;DHT22;20046;50.746;7.072;2023-02-15T17:18:31;9.50;99.90
33717;DHT22;20046;50.746;7.072;2023-02-15T17:21:08;9.40;99.90
33717;DHT22;20046;50.746;7.072;2023-02-15T17:23:44;9.40;99.90
33717;DHT22;20046;50.746;7.072;2023-02-15T17:26:20;9.40;99.90
33717;DHT22;20046;50.746;7.072;2023-02-15T17:28:52;9.30;99.90
33717;DHT22;20046;50.746;7.072;2023-02-15T17:31:20;9.30;99.90
33717;DHT22;20046;50.746;7.072;2023-02-15T17:33:46;9.30;99.90
33717;DHT22;20046;50.746;7.072;2023-02-15T17:36:20;9.30;99.90
33717;DHT22;20046;50.746;7.072;2023-02-15T17:41:25;9.20;99.90
33717;DHT22;20046;50.746;7.072;2023-02-15T17:43:51;9.20;99.90
33717;DHT22;20046;50.746;7.072;2023-02-15T17:46:17;9.20;99.90
33717;DHT22;20046;50.746;7.072;2023-02-15T17:48:46;9.10;99.90
33717;DHT22;20046;50.746;7.072;2023-02-15T17:51:13;9.00;99.90
33717;DHT22;20046;50.746;7.072;2023-02-15T17:53:39;9.00;99.90
33717;DHT22;20046;50.746;7.072;2023-02-15T17:56:05;8.90;99.90
33717;DHT22;20046;50.746;7.072;2023-02-15T17:58:37;8.90;99.90
33717;DHT22;20046;50.746;7.072;2023-02-15T18:01:06;8.90;99.90
33717;DHT22;20046;50.746;7.072;2023-02-15T18:03:52;8.90;99.90
33717;DHT22;20046;50.746;7.072;2023-02-15T18:06:38;8.80;99.90
33717;DHT22;20046;50.746;7.072;2023-02-15T18:09:23;8.80;99.90
33717;DHT22;20046;50.746;7.072;2023-02-15T18:12:31;8.80;99.90
33717;DHT22;20046;50.746;7.072;2023-02-15T18:14:57;8.70;99.90
33717;DHT22;20046;50.746;7.072;2023-02-15T18:19:52;8.70;99.90
33717;DHT22;20046;50.746;7.072;2023-02-15T18:22:18;8.70;99.90
33717;DHT22;20046;50.746;7.072;2023-02-15T18:24:45;8.70;99.90
33717;DHT22;20046;50.746;7.072;2023-02-15T18:27:12;8.70;99.90
33717;DHT22;20046;50.746;7.072;2023-02-15T18:29:38;8.70;99.90
33717;DHT22;20046;50.746;7.072;2023-02-15T18:32:07;8.60;99.90
33717;DHT22;20046;50.746;7.072;2023-02-15T18:34:38;8.60;99.90
33717;DHT22;20046;50.746;7.072;2023-02-15T18:37:09;8.50;99.90
33717;DHT22;20046;50.746;7.072;2023-02-15T18:39:40;8.50;99.90
33717;DHT22;20046;50.746;7.072;2023-02-15T18:42:24;8.50;99.90
33717;DHT22;20046;50.746;7.072;2023-02-15T18:44:55;8.50;99.90
33717;DHT22;20046;50.746;7.072;2023-02-15T18:47:21;8.40;99.90
33717;DHT22;20046;50.746;7.072;2023-02-15T18:49:46;8.50;99.90
33717;DHT22;20046;50.746;7.072;2023-02-15T18:52:15;8.50;99.90
33717;DHT22;20046;50.746;7.072;2023-02-15T18:54:41;8.40;99.90
33717;DHT22;20046;50.746;7.072;2023-02-15T18:57:09;8.40;99.90
33717;DHT22;20046;50.746;7.072;2023-02-15T18:59:36;8.40;99.90
33717;DHT22;20046;50.746;7.072;2023-02-15T19:02:02;8.30;99.90
33717;DHT22;20046;50.746;7.072;2023-02-15T19:04:28;8.30;99.90
33717;DHT22;20046;50.746;7.072;2023-02-15T19:06:54;8.20;99.90